createdAt,value
2023-10-04T00:01:47.759Z,93.79
2023-10-04T00:04:14.411Z,96.64
2023-10-04T00:06:42.466Z,92.99
2023-10-04T00:09:11.903Z,93.38
2023-10-04T00:11:38.398Z,93.41
2023-10-04T00:14:04.927Z,93.84
2023-10-04T00:16:34.021Z,93.42
2023-10-04T00:19:00.514Z,94.35
2023-10-04T00:21:27.445Z,93.59
2023-10-04T00:23:53.938Z,93.95
2023-10-04T00:26:20.404Z,93.52
2023-10-04T00:28:46.832Z,93.72
2023-10-04T00:31:16.601Z,92.85
2023-10-04T00:33:43.167Z,91.86
2023-10-04T00:36:09.787Z,92.50
2023-10-04T00:38:38.461Z,93.57
2023-10-04T00:41:08.479Z,92.49
2023-10-04T00:43:46.757Z,92.60
2023-10-04T00:46:13.607Z,92.55
2023-10-04T00:48:40.832Z,92.81
2023-10-04T00:51:08.042Z,91.68
2023-10-04T00:53:34.999Z,92.02
2023-10-04T00:56:01.418Z,90.51
2023-10-04T00:58:29.341Z,90.74
2023-10-04T01:00:56.086Z,92.36
2023-10-04T01:03:26.246Z,91.44
2023-10-04T01:05:54.020Z,90.64
2023-10-04T01:08:22.926Z,92.06
2023-10-04T01:10:54.839Z,91.63
2023-10-04T01:13:27.731Z,91.44
2023-10-04T01:15:58.639Z,91.51
2023-10-04T01:18:26.519Z,91.62
2023-10-04T01:20:56.455Z,90.60
2023-10-04T01:23:22.873Z,93.01
2023-10-04T01:25:49.424Z,94.20
2023-10-04T01:28:28.514Z,94.19
2023-10-04T01:30:56.191Z,95.06
2023-10-04T01:33:23.101Z,93.66
2023-10-04T01:35:50.907Z,94.05
2023-10-04T01:38:17.946Z,95.85
2023-10-04T01:40:48.630Z,96.21
2023-10-04T01:43:19.146Z,95.61
2023-10-04T01:45:49.461Z,94.54
2023-10-04T01:48:22.131Z,94.63
2023-10-04T01:50:49.714Z,93.90
2023-10-04T01:53:16.844Z,93.75
2023-10-04T01:55:43.291Z,93.64
2023-10-04T01:58:09.772Z,96.46
2023-10-04T02:00:36.389Z,97.24
2023-10-04T02:03:03.091Z,96.01
2023-10-04T02:05:33.738Z,97.72
2023-10-04T02:08:00.320Z,96.91
2023-10-04T02:10:27.527Z,98.29
2023-10-04T02:12:57.879Z,98.05
2023-10-04T02:15:24.573Z,96.10
2023-10-04T02:18:00.085Z,95.85
2023-10-04T02:20:29.344Z,97.83
2023-10-04T02:22:56.077Z,98.01
2023-10-04T02:25:22.643Z,97.01
2023-10-04T02:27:53.816Z,98.10
2023-10-04T02:30:24.620Z,98.41
2023-10-04T02:46:57.549Z,100.00
2023-10-04T02:49:24.777Z,100.00
2023-10-04T02:51:51.322Z,98.56
2023-10-04T02:54:18.035Z,97.29
2023-10-04T02:56:47.249Z,97.06
2023-10-04T02:59:13.934Z,96.96
2023-10-04T03:01:42.437Z,96.21
2023-10-04T03:04:10.943Z,95.05
2023-10-04T03:06:37.500Z,96.37
2023-10-04T03:09:07.568Z,95.66
2023-10-04T03:11:34.175Z,93.85
2023-10-04T03:14:01.156Z,96.12
2023-10-04T03:16:27.726Z,95.41
2023-10-04T03:18:54.685Z,94.42
2023-10-04T03:21:27.641Z,94.64
2023-10-04T03:23:55.529Z,93.61
2023-10-04T03:26:22.316Z,94.16
2023-10-04T03:28:50.242Z,94.38
2023-10-04T03:31:17.791Z,95.55
2023-10-04T03:33:45.843Z,94.48
2023-10-04T03:36:19.346Z,96.00
2023-10-04T03:38:46.601Z,96.51
2023-10-04T03:41:14.506Z,97.13
2023-10-04T03:43:42.165Z,98.21
2023-10-04T03:46:19.186Z,98.59
2023-10-04T03:48:50.007Z,99.43
2023-10-04T03:51:21.690Z,99.40
2023-10-04T03:53:51.120Z,97.94
2023-10-04T03:56:18.741Z,97.56
2023-10-04T03:58:45.726Z,97.22
2023-10-04T04:01:12.473Z,97.73
2023-10-04T04:03:39.496Z,97.97
2023-10-04T04:06:06.648Z,97.57
2023-10-04T04:08:34.148Z,97.37
2023-10-04T04:11:02.035Z,96.54
2023-10-04T04:13:28.618Z,98.77
2023-10-04T04:15:56.169Z,96.07
2023-10-04T04:18:23.046Z,96.84
2023-10-04T04:20:50.031Z,95.16
2023-10-04T04:23:17.177Z,95.83
2023-10-04T04:25:44.877Z,95.25
2023-10-04T04:28:16.279Z,94.68
2023-10-04T04:31:16.807Z,95.27
2023-10-04T04:33:44.655Z,96.95
2023-10-04T04:36:18.601Z,96.51
2023-10-04T04:38:48.471Z,95.12
2023-10-04T04:41:15.609Z,95.39
2023-10-04T04:43:44.485Z,94.62
2023-10-04T04:46:14.657Z,94.52
2023-10-04T04:48:42.370Z,96.99
2023-10-04T04:51:12.363Z,96.80
2023-10-04T04:53:43.305Z,97.20
2023-10-04T04:56:13.781Z,95.92
2023-10-04T04:58:51.564Z,95.88
2023-10-04T05:01:18.576Z,95.37
2023-10-04T05:03:52.985Z,97.35
2023-10-04T05:06:26.623Z,95.60
2023-10-04T05:08:58.221Z,94.53
2023-10-04T05:11:25.575Z,96.52
2023-10-04T05:14:17.017Z,95.59
2023-10-04T05:17:13.307Z,94.45
2023-10-04T05:20:01.640Z,95.26
2023-10-04T05:22:28.320Z,95.26
2023-10-04T05:24:54.917Z,94.95
2023-10-04T05:27:21.719Z,93.99
2023-10-04T05:29:48.492Z,94.02
2023-10-04T05:32:15.103Z,93.89
2023-10-04T05:34:44.238Z,95.22
2023-10-04T05:37:11.107Z,94.63
2023-10-04T05:39:49.877Z,94.46
2023-10-04T05:42:16.480Z,96.24
2023-10-04T05:45:18.163Z,94.56
2023-10-04T05:47:44.848Z,95.71
2023-10-04T05:50:14.505Z,96.71
2023-10-04T05:52:41.169Z,96.37
2023-10-04T05:55:09.748Z,94.37
2023-10-04T05:57:39.614Z,94.29
2023-10-04T06:00:25.903Z,95.94
2023-10-04T06:02:54.208Z,96.65
2023-10-04T06:05:23.398Z,95.90
2023-10-04T06:07:53.014Z,94.40
2023-10-04T06:10:19.571Z,95.70
2023-10-04T06:13:12.951Z,96.63
2023-10-04T06:15:43.665Z,95.89
2023-10-04T06:18:13.111Z,95.20
2023-10-04T06:20:42.163Z,95.17
2023-10-04T06:23:10.746Z,94.68
2023-10-04T06:25:47.976Z,94.79
2023-10-04T06:28:17.686Z,94.52
2023-10-04T06:30:49.426Z,94.43
2023-10-04T06:33:16.756Z,94.26
2023-10-04T06:35:44.969Z,93.48
2023-10-04T06:42:19.658Z,94.40
2023-10-04T06:44:46.664Z,93.66
2023-10-04T06:47:19.575Z,93.54
2023-10-04T06:51:13.021Z,92.44
2023-10-04T06:58:23.693Z,92.88
2023-10-04T07:01:19.795Z,93.32
2023-10-04T07:04:15.287Z,92.55
2023-10-04T07:07:04.066Z,90.62
2023-10-04T07:09:56.814Z,90.23
2023-10-04T07:12:35.407Z,89.96
2023-10-04T07:19:21.579Z,90.82
2023-10-04T07:37:38.424Z,90.13
2023-10-04T07:44:50.227Z,90.96
2023-10-04T07:47:16.952Z,89.93
2023-10-04T08:08:24.067Z,87.93
2023-10-04T08:11:05.715Z,87.52
2023-10-04T08:20:51.767Z,87.11
2023-10-04T08:28:20.086Z,86.76
2023-10-04T08:31:17.969Z,87.85
2023-10-04T08:34:06.899Z,87.23
2023-10-04T08:51:58.185Z,86.48
2023-10-04T09:01:08.166Z,85.45
2023-10-04T09:03:59.217Z,82.82
2023-10-04T09:10:20.531Z,81.85
2023-10-04T09:13:20.090Z,80.90
2023-10-04T09:15:53.510Z,81.40
2023-10-04T09:22:42.090Z,82.39
2023-10-04T09:25:18.342Z,82.12
2023-10-04T10:12:31.761Z,78.56
2023-10-04T10:15:27.220Z,78.21
2023-10-04T10:21:40.400Z,78.99
2023-10-04T10:24:21.657Z,78.24
2023-10-04T10:27:34.832Z,78.11
2023-10-04T10:30:14.493Z,78.33
2023-10-04T10:33:34.473Z,78.38
2023-10-04T10:36:05.382Z,78.06
2023-10-04T10:39:47.921Z,80.03
2023-10-04T10:42:31.000Z,81.89
2023-10-04T10:48:59.620Z,81.51
2023-10-04T10:54:47.324Z,80.97
2023-10-04T11:00:27.568Z,79.59
2023-10-04T11:02:57.328Z,77.58
2023-10-04T11:05:29.416Z,77.45
2023-10-04T11:08:02.413Z,76.79
2023-10-04T11:10:31.325Z,75.79
2023-10-04T11:12:59.549Z,76.28
2023-10-04T11:19:25.741Z,75.72
2023-10-04T11:21:54.705Z,74.23
2023-10-04T11:24:22.305Z,74.21
2023-10-04T11:26:50.325Z,72.56
2023-10-04T11:30:12.508Z,71.63
2023-10-04T11:39:02.947Z,69.25
2023-10-04T11:41:44.978Z,68.80
2023-10-04T11:44:32.571Z,69.99
2023-10-04T11:51:07.826Z,68.71
2023-10-04T12:01:38.990Z,66.24
2023-10-04T12:04:07.185Z,67.01
2023-10-04T12:09:41.052Z,65.39
2023-10-04T12:12:46.417Z,66.23
2023-10-04T12:15:23.453Z,66.49
2023-10-04T12:18:07.091Z,67.21
2023-10-04T12:24:04.147Z,64.80
2023-10-04T12:26:38.158Z,65.83
2023-10-04T12:29:05.686Z,65.74
2023-10-04T12:31:58.327Z,66.00
2023-10-04T12:35:07.601Z,65.64
2023-10-04T12:38:48.734Z,66.91
2023-10-04T12:45:02.143Z,66.21
2023-10-04T12:52:05.737Z,65.07
2023-10-04T12:58:23.940Z,66.21
2023-10-04T13:04:38.900Z,66.04
2023-10-04T13:07:12.167Z,65.95
2023-10-04T13:09:52.493Z,65.39
2023-10-04T13:19:25.137Z,64.90
2023-10-04T13:22:08.596Z,65.05
2023-10-04T13:27:35.128Z,64.85
2023-10-04T13:41:33.506Z,65.67
2023-10-04T13:58:35.123Z,66.19
2023-10-04T14:23:06.717Z,66.94
2023-10-04T14:28:27.144Z,67.42
2023-10-04T14:34:31.950Z,68.56
2023-10-04T14:37:01.664Z,68.56
2023-10-04T14:46:14.147Z,67.84
2023-10-04T14:52:38.495Z,64.91
2023-10-04T14:55:11.264Z,65.06
2023-10-04T14:57:43.939Z,64.21
2023-10-04T15:00:18.292Z,63.96
2023-10-04T15:02:58.211Z,66.19
2023-10-04T15:05:27.676Z,64.79
2023-10-04T15:08:39.966Z,64.71
2023-10-04T15:11:09.568Z,65.23
2023-10-04T15:13:45.379Z,65.39
2023-10-04T15:24:15.081Z,68.20
2023-10-04T15:26:46.078Z,68.63
2023-10-04T15:29:21.975Z,69.15
2023-10-04T15:31:52.866Z,68.91
2023-10-04T15:35:12.784Z,68.79
2023-10-04T15:37:44.637Z,69.57
2023-10-04T15:40:17.835Z,69.90
2023-10-04T15:43:25.793Z,70.04
2023-10-04T15:45:52.896Z,70.28
2023-10-04T15:48:19.767Z,70.84
2023-10-04T15:50:49.767Z,70.58
2023-10-04T15:53:16.655Z,71.00
2023-10-04T15:55:57.168Z,71.41
2023-10-04T15:58:37.399Z,70.68
2023-10-04T16:01:04.420Z,71.67
2023-10-04T16:03:32.418Z,71.49
2023-10-04T16:06:04.142Z,71.99
2023-10-04T16:08:31.774Z,71.19
2023-10-04T16:11:10.885Z,71.41
2023-10-04T16:13:37.751Z,71.11
2023-10-04T16:16:05.972Z,72.38
2023-10-04T16:18:35.527Z,71.98
2023-10-04T16:21:26.296Z,72.03
2023-10-04T16:23:54.470Z,72.00
2023-10-04T16:26:21.240Z,72.01
2023-10-04T16:28:52.759Z,72.02
2023-10-04T16:31:19.607Z,72.32
2023-10-04T16:33:46.592Z,72.51
2023-10-04T16:36:14.875Z,72.97
2023-10-04T16:38:41.991Z,72.95
2023-10-04T16:44:56.126Z,73.35
2023-10-04T16:47:27.822Z,74.42
2023-10-04T16:49:55.515Z,73.60
2023-10-04T16:52:58.367Z,74.47
2023-10-04T16:55:26.736Z,73.93
2023-10-04T16:57:53.522Z,73.85
2023-10-04T17:00:20.778Z,73.21
2023-10-04T17:02:50.346Z,73.88
2023-10-04T17:05:17.400Z,73.23
2023-10-04T17:08:23.143Z,73.32
2023-10-04T17:13:39.460Z,73.86
2023-10-04T17:19:21.395Z,75.04
2023-10-04T17:21:48.288Z,74.66
2023-10-04T17:24:15.178Z,73.86
2023-10-04T17:26:41.967Z,74.26
2023-10-04T17:29:09.234Z,74.78
2023-10-04T17:32:19.848Z,74.37
2023-10-04T17:41:55.145Z,74.64
2023-10-04T17:44:40.292Z,74.52
2023-10-04T17:47:07.139Z,75.45
2023-10-04T17:49:50.214Z,74.87
2023-10-04T18:12:32.659Z,76.13
2023-10-04T19:13:15.136Z,76.27
2023-10-04T19:23:10.826Z,75.15
2023-10-04T19:25:48.666Z,75.60
2023-10-04T19:31:19.627Z,73.21
2023-10-04T19:33:50.594Z,73.69
2023-10-04T19:36:31.879Z,72.63
2023-10-04T19:38:58.755Z,73.79
2023-10-04T19:46:24.954Z,74.40
2023-10-04T19:48:52.001Z,74.04
2023-10-04T19:51:26.008Z,74.23
2023-10-04T19:53:54.171Z,72.87
2023-10-04T19:56:23.676Z,74.01
2023-10-04T19:59:02.503Z,74.36
2023-10-04T20:01:43.875Z,74.81
2023-10-04T20:04:17.999Z,73.92
2023-10-04T20:06:45.263Z,73.63
2023-10-04T20:09:14.435Z,73.61
2023-10-04T20:11:44.430Z,76.27
2023-10-04T20:14:13.760Z,74.07
2023-10-04T20:17:04.461Z,73.91
2023-10-04T20:19:34.972Z,73.80
2023-10-04T20:22:01.694Z,73.29
2023-10-04T20:24:28.998Z,73.94
2023-10-04T20:27:05.820Z,73.99
2023-10-04T20:29:45.310Z,73.62
2023-10-04T20:32:12.255Z,73.86
2023-10-04T20:34:38.799Z,74.33
2023-10-04T20:37:08.997Z,74.48
2023-10-04T20:40:05.035Z,74.61
2023-10-04T20:42:37.865Z,74.09
2023-10-04T20:45:09.596Z,74.87
2023-10-04T20:47:46.891Z,73.97
2023-10-04T20:50:14.026Z,73.32
2023-10-04T20:52:52.426Z,74.36
2023-10-04T20:55:24.260Z,74.69
2023-10-04T20:58:00.183Z,75.03
2023-10-04T21:00:27.346Z,73.43
2023-10-04T21:02:54.298Z,74.42
2023-10-04T21:05:21.942Z,74.23
2023-10-04T21:07:50.719Z,73.71
2023-10-04T21:10:17.854Z,73.67
2023-10-04T21:12:58.022Z,74.41
2023-10-04T21:15:28.699Z,74.60
2023-10-04T21:18:07.293Z,74.97
2023-10-04T21:20:34.020Z,75.64
2023-10-04T21:23:00.883Z,73.86
2023-10-04T21:25:27.800Z,74.02
2023-10-04T21:27:57.406Z,73.65
2023-10-04T21:30:29.856Z,74.07
2023-10-04T21:33:14.778Z,74.56
2023-10-04T21:35:41.458Z,73.38
2023-10-04T21:38:15.938Z,75.68
2023-10-04T21:40:45.888Z,74.90
2023-10-04T21:43:14.673Z,74.87
2023-10-04T21:45:50.596Z,74.56
2023-10-04T21:48:29.946Z,74.39
2023-10-04T21:50:59.602Z,75.16
2023-10-04T21:53:26.536Z,74.16
2023-10-04T21:56:01.238Z,74.60
2023-10-04T21:58:31.007Z,75.24
2023-10-04T22:00:59.323Z,74.27
2023-10-04T22:03:27.385Z,74.34
2023-10-04T22:05:57.056Z,75.20
2023-10-04T22:11:38.720Z,75.20
2023-10-04T22:14:05.854Z,76.94
2023-10-04T22:16:32.829Z,76.41
2023-10-04T22:18:59.492Z,76.45
2023-10-04T22:21:29.528Z,75.88
2023-10-04T22:27:47.022Z,76.62
2023-10-04T22:30:18.955Z,77.01
2023-10-04T22:32:54.035Z,78.81
2023-10-04T22:38:05.772Z,77.60
2023-10-04T22:40:58.130Z,78.38
2023-10-04T22:43:25.186Z,78.53
2023-10-04T22:45:53.413Z,78.66
2023-10-04T22:48:20.186Z,78.28
2023-10-04T22:50:48.103Z,79.03
2023-10-04T22:53:15.447Z,79.73
2023-10-04T23:00:30.472Z,78.74
2023-10-04T23:02:59.724Z,79.61
2023-10-04T23:05:27.249Z,79.87
2023-10-04T23:07:58.216Z,79.28
2023-10-04T23:10:25.102Z,78.14
2023-10-04T23:12:58.896Z,80.13
2023-10-04T23:15:33.098Z,79.46
2023-10-04T23:18:11.725Z,79.91
2023-10-04T23:20:41.491Z,80.84
2023-10-04T23:23:15.792Z,80.48
2023-10-04T23:25:45.982Z,78.46
2023-10-04T23:28:13.294Z,78.70
2023-10-04T23:30:43.621Z,78.83
2023-10-04T23:33:12.858Z,79.72
2023-10-04T23:35:42.442Z,79.59
2023-10-04T23:38:22.865Z,79.18
2023-10-04T23:40:50.924Z,78.57
2023-10-04T23:43:19.533Z,80.11
2023-10-04T23:45:47.934Z,81.50
2023-10-04T23:48:34.366Z,79.13
2023-10-04T23:51:10.936Z,79.82
2023-10-04T23:53:41.392Z,80.42
2023-10-04T23:56:08.985Z,80.63
2023-10-04T23:58:40.383Z,79.61
